sensor_id;sensor_type;location;lat;lon;timestamp;P1;durP1;ratioP1;P2;durP2;ratioP2
77226;SDS011;66234;47.642;19.144;2023-04-19T00:00:05;4.40;;;2.23;;
77226;SDS011;66234;47.642;19.144;2023-04-19T00:03:12;3.88;;;2.40;;
77226;SDS011;66234;47.642;19.144;2023-04-19T00:06:16;4.97;;;2.40;;
77226;SDS011;66234;47.642;19.144;2023-04-19T00:09:18;3.25;;;2.33;;
77226;SDS011;66234;47.642;19.144;2023-04-19T00:12:21;3.90;;;2.30;;
77226;SDS011;66234;47.642;19.144;2023-04-19T00:15:24;5.17;;;2.33;;
77226;SDS011;66234;47.642;19.144;2023-04-19T00:18:26;4.57;;;2.58;;
77226;SDS011;66234;47.642;19.144;2023-04-19T00:21:29;4.28;;;2.22;;
77226;SDS011;66234;47.642;19.144;2023-04-19T00:24:32;4.18;;;2.22;;
77226;SDS011;66234;47.642;19.144;2023-04-19T00:27:35;5.00;;;2.40;;
77226;SDS011;66234;47.642;19.144;2023-04-19T00:30:37;4.53;;;2.57;;
77226;SDS011;66234;47.642;19.144;2023-04-19T00:33:40;5.00;;;2.60;;
77226;SDS011;66234;47.642;19.144;2023-04-19T00:36:46;5.38;;;2.45;;
77226;SDS011;66234;47.642;19.144;2023-04-19T00:39:49;2.90;;;1.98;;
77226;SDS011;66234;47.642;19.144;2023-04-19T00:42:52;4.87;;;2.50;;
77226;SDS011;66234;47.642;19.144;2023-04-19T00:45:54;4.77;;;2.30;;
77226;SDS011;66234;47.642;19.144;2023-04-19T00:48:57;3.38;;;2.10;;
77226;SDS011;66234;47.642;19.144;2023-04-19T00:52:00;5.18;;;1.95;;
77226;SDS011;66234;47.642;19.144;2023-04-19T00:55:02;3.45;;;2.10;;
77226;SDS011;66234;47.642;19.144;2023-04-19T00:58:06;5.60;;;2.83;;
77226;SDS011;66234;47.642;19.144;2023-04-19T01:01:10;3.97;;;2.10;;
77226;SDS011;66234;47.642;19.144;2023-04-19T01:04:12;3.95;;;1.95;;
77226;SDS011;66234;47.642;19.144;2023-04-19T01:07:17;2.80;;;2.22;;
77226;SDS011;66234;47.642;19.144;2023-04-19T01:10:20;3.72;;;2.40;;
77226;SDS011;66234;47.642;19.144;2023-04-19T01:13:24;4.23;;;2.47;;
77226;SDS011;66234;47.642;19.144;2023-04-19T01:16:29;3.80;;;2.10;;
77226;SDS011;66234;47.642;19.144;2023-04-19T01:19:32;3.67;;;2.10;;
77226;SDS011;66234;47.642;19.144;2023-04-19T01:22:36;3.60;;;1.90;;
77226;SDS011;66234;47.642;19.144;2023-04-19T01:25:39;5.75;;;1.77;;
77226;SDS011;66234;47.642;19.144;2023-04-19T01:28:42;3.43;;;1.60;;
77226;SDS011;66234;47.642;19.144;2023-04-19T01:31:44;3.77;;;2.07;;
77226;SDS011;66234;47.642;19.144;2023-04-19T01:34:52;4.13;;;2.17;;
77226;SDS011;66234;47.642;19.144;2023-04-19T01:37:54;4.10;;;2.00;;
77226;SDS011;66234;47.642;19.144;2023-04-19T01:40:57;3.38;;;1.98;;
77226;SDS011;66234;47.642;19.144;2023-04-19T01:44:00;4.23;;;2.00;;
77226;SDS011;66234;47.642;19.144;2023-04-19T01:47:03;3.73;;;1.80;;
77226;SDS011;66234;47.642;19.144;2023-04-19T01:50:07;3.35;;;1.95;;
77226;SDS011;66234;47.642;19.144;2023-04-19T01:53:10;3.40;;;1.55;;
77226;SDS011;66234;47.642;19.144;2023-04-19T01:56:13;5.50;;;2.10;;
77226;SDS011;66234;47.642;19.144;2023-04-19T01:59:15;3.40;;;1.57;;
77226;SDS011;66234;47.642;19.144;2023-04-19T02:02:19;3.23;;;1.77;;
77226;SDS011;66234;47.642;19.144;2023-04-19T02:05:23;4.32;;;2.35;;
77226;SDS011;66234;47.642;19.144;2023-04-19T02:08:25;4.20;;;1.77;;
77226;SDS011;66234;47.642;19.144;2023-04-19T02:11:28;4.65;;;1.67;;
77226;SDS011;66234;47.642;19.144;2023-04-19T02:14:31;3.20;;;2.30;;
77226;SDS011;66234;47.642;19.144;2023-04-19T02:17:34;5.30;;;2.00;;
77226;SDS011;66234;47.642;19.144;2023-04-19T02:20:38;3.08;;;1.63;;
77226;SDS011;66234;47.642;19.144;2023-04-19T02:23:41;3.38;;;2.08;;
77226;SDS011;66234;47.642;19.144;2023-04-19T02:26:44;5.18;;;2.25;;
77226;SDS011;66234;47.642;19.144;2023-04-19T02:29:49;2.73;;;2.00;;
77226;SDS011;66234;47.642;19.144;2023-04-19T02:32:51;3.70;;;1.90;;
77226;SDS011;66234;47.642;19.144;2023-04-19T02:35:56;5.93;;;2.03;;
77226;SDS011;66234;47.642;19.144;2023-04-19T02:38:59;3.95;;;2.10;;
77226;SDS011;66234;47.642;19.144;2023-04-19T02:42:01;2.92;;;1.65;;
77226;SDS011;66234;47.642;19.144;2023-04-19T02:45:04;4.07;;;2.17;;
77226;SDS011;66234;47.642;19.144;2023-04-19T02:48:07;4.30;;;1.77;;
77226;SDS011;66234;47.642;19.144;2023-04-19T02:51:14;3.63;;;2.20;;
77226;SDS011;66234;47.642;19.144;2023-04-19T02:54:18;3.25;;;2.15;;
77226;SDS011;66234;47.642;19.144;2023-04-19T02:57:21;5.20;;;2.30;;
77226;SDS011;66234;47.642;19.144;2023-04-19T03:00:24;6.83;;;1.80;;
77226;SDS011;66234;47.642;19.144;2023-04-19T03:03:36;3.63;;;2.30;;
77226;SDS011;66234;47.642;19.144;2023-04-19T03:06:39;3.33;;;1.90;;
77226;SDS011;66234;47.642;19.144;2023-04-19T03:09:43;2.97;;;1.75;;
77226;SDS011;66234;47.642;19.144;2023-04-19T03:12:46;3.15;;;2.10;;
77226;SDS011;66234;47.642;19.144;2023-04-19T03:15:49;5.27;;;2.50;;
77226;SDS011;66234;47.642;19.144;2023-04-19T03:18:55;5.50;;;2.30;;
77226;SDS011;66234;47.642;19.144;2023-04-19T03:22:01;4.13;;;1.90;;
77226;SDS011;66234;47.642;19.144;2023-04-19T03:25:06;7.13;;;2.17;;
77226;SDS011;66234;47.642;19.144;2023-04-19T03:28:10;6.18;;;2.30;;
77226;SDS011;66234;47.642;19.144;2023-04-19T03:31:31;3.43;;;2.10;;
77226;SDS011;66234;47.642;19.144;2023-04-19T03:34:34;4.67;;;2.43;;
77226;SDS011;66234;47.642;19.144;2023-04-19T03:37:37;4.40;;;2.08;;
77226;SDS011;66234;47.642;19.144;2023-04-19T03:40:39;5.05;;;3.00;;
77226;SDS011;66234;47.642;19.144;2023-04-19T03:43:45;7.97;;;2.15;;
77226;SDS011;66234;47.642;19.144;2023-04-19T03:46:47;6.00;;;2.90;;
77226;SDS011;66234;47.642;19.144;2023-04-19T03:49:55;3.73;;;2.37;;
77226;SDS011;66234;47.642;19.144;2023-04-19T03:52:59;6.18;;;2.22;;
77226;SDS011;66234;47.642;19.144;2023-04-19T03:56:01;5.00;;;2.67;;
77226;SDS011;66234;47.642;19.144;2023-04-19T03:59:06;4.32;;;2.47;;
77226;SDS011;66234;47.642;19.144;2023-04-19T04:02:11;3.60;;;2.20;;
77226;SDS011;66234;47.642;19.144;2023-04-19T04:05:14;4.00;;;2.80;;
77226;SDS011;66234;47.642;19.144;2023-04-19T04:08:17;4.68;;;2.58;;
77226;SDS011;66234;47.642;19.144;2023-04-19T04:11:20;6.28;;;2.80;;
77226;SDS011;66234;47.642;19.144;2023-04-19T04:14:23;4.75;;;2.67;;
77226;SDS011;66234;47.642;19.144;2023-04-19T04:17:26;4.63;;;2.40;;
77226;SDS011;66234;47.642;19.144;2023-04-19T04:20:29;5.60;;;2.10;;
77226;SDS011;66234;47.642;19.144;2023-04-19T04:23:39;4.85;;;2.53;;
77226;SDS011;66234;47.642;19.144;2023-04-19T04:26:44;5.13;;;2.45;;
77226;SDS011;66234;47.642;19.144;2023-04-19T04:29:57;3.35;;;2.22;;
77226;SDS011;66234;47.642;19.144;2023-04-19T04:32:59;6.57;;;2.80;;
77226;SDS011;66234;47.642;19.144;2023-04-19T04:36:02;7.43;;;3.03;;
77226;SDS011;66234;47.642;19.144;2023-04-19T04:39:10;7.97;;;3.38;;
77226;SDS011;66234;47.642;19.144;2023-04-19T04:42:13;6.40;;;4.05;;
77226;SDS011;66234;47.642;19.144;2023-04-19T04:45:15;9.25;;;3.10;;
77226;SDS011;66234;47.642;19.144;2023-04-19T04:48:20;5.27;;;3.13;;
77226;SDS011;66234;47.642;19.144;2023-04-19T04:51:22;6.00;;;3.10;;
77226;SDS011;66234;47.642;19.144;2023-04-19T04:54:28;8.23;;;3.30;;
77226;SDS011;66234;47.642;19.144;2023-04-19T04:57:31;7.55;;;3.42;;
77226;SDS011;66234;47.642;19.144;2023-04-19T05:00:35;6.47;;;2.75;;
77226;SDS011;66234;47.642;19.144;2023-04-19T05:03:41;7.37;;;3.57;;
77226;SDS011;66234;47.642;19.144;2023-04-19T05:06:48;4.67;;;2.97;;
77226;SDS011;66234;47.642;19.144;2023-04-19T05:09:56;6.80;;;3.33;;
77226;SDS011;66234;47.642;19.144;2023-04-19T05:13:06;4.50;;;2.60;;
77226;SDS011;66234;47.642;19.144;2023-04-19T05:16:09;5.95;;;2.90;;
77226;SDS011;66234;47.642;19.144;2023-04-19T05:19:13;6.57;;;2.87;;
77226;SDS011;66234;47.642;19.144;2023-04-19T05:22:21;5.83;;;3.10;;
77226;SDS011;66234;47.642;19.144;2023-04-19T05:25:25;7.00;;;2.95;;
77226;SDS011;66234;47.642;19.144;2023-04-19T05:28:28;5.82;;;2.55;;
77226;SDS011;66234;47.642;19.144;2023-04-19T05:31:54;7.93;;;3.33;;
77226;SDS011;66234;47.642;19.144;2023-04-19T05:35:02;5.27;;;3.20;;
77226;SDS011;66234;47.642;19.144;2023-04-19T05:38:08;7.50;;;3.33;;
77226;SDS011;66234;47.642;19.144;2023-04-19T05:41:10;5.47;;;2.80;;
77226;SDS011;66234;47.642;19.144;2023-04-19T05:44:13;6.75;;;3.38;;
77226;SDS011;66234;47.642;19.144;2023-04-19T05:47:16;5.18;;;3.20;;
77226;SDS011;66234;47.642;19.144;2023-04-19T05:50:35;9.17;;;3.83;;
77226;SDS011;66234;47.642;19.144;2023-04-19T05:54:04;5.80;;;3.83;;
77226;SDS011;66234;47.642;19.144;2023-04-19T05:57:07;6.90;;;3.22;;
77226;SDS011;66234;47.642;19.144;2023-04-19T06:00:10;9.55;;;3.40;;
77226;SDS011;66234;47.642;19.144;2023-04-19T06:03:23;7.45;;;3.75;;
77226;SDS011;66234;47.642;19.144;2023-04-19T06:06:31;6.57;;;3.47;;
77226;SDS011;66234;47.642;19.144;2023-04-19T06:09:34;6.93;;;3.20;;
77226;SDS011;66234;47.642;19.144;2023-04-19T06:12:36;7.18;;;3.88;;
77226;SDS011;66234;47.642;19.144;2023-04-19T06:15:39;7.97;;;4.10;;
77226;SDS011;66234;47.642;19.144;2023-04-19T06:18:42;8.52;;;3.80;;
77226;SDS011;66234;47.642;19.144;2023-04-19T06:21:44;6.13;;;3.90;;
77226;SDS011;66234;47.642;19.144;2023-04-19T06:24:47;8.47;;;3.57;;
77226;SDS011;66234;47.642;19.144;2023-04-19T06:27:51;6.53;;;3.50;;
77226;SDS011;66234;47.642;19.144;2023-04-19T06:30:54;5.88;;;3.40;;
77226;SDS011;66234;47.642;19.144;2023-04-19T06:33:57;10.98;;;3.53;;
77226;SDS011;66234;47.642;19.144;2023-04-19T06:36:59;6.37;;;3.13;;
77226;SDS011;66234;47.642;19.144;2023-04-19T06:40:03;6.03;;;3.20;;
77226;SDS011;66234;47.642;19.144;2023-04-19T06:43:09;5.68;;;3.60;;
77226;SDS011;66234;47.642;19.144;2023-04-19T06:46:12;5.50;;;2.83;;
77226;SDS011;66234;47.642;19.144;2023-04-19T06:49:15;6.85;;;3.50;;
77226;SDS011;66234;47.642;19.144;2023-04-19T06:52:18;5.53;;;3.20;;
77226;SDS011;66234;47.642;19.144;2023-04-19T06:55:20;10.20;;;3.97;;
77226;SDS011;66234;47.642;19.144;2023-04-19T06:58:23;8.05;;;3.20;;
77226;SDS011;66234;47.642;19.144;2023-04-19T07:01:26;6.20;;;3.33;;
77226;SDS011;66234;47.642;19.144;2023-04-19T07:04:29;5.18;;;3.33;;
77226;SDS011;66234;47.642;19.144;2023-04-19T07:07:32;6.63;;;2.80;;
77226;SDS011;66234;47.642;19.144;2023-04-19T07:10:35;5.10;;;2.90;;
77226;SDS011;66234;47.642;19.144;2023-04-19T07:13:38;5.35;;;3.22;;
77226;SDS011;66234;47.642;19.144;2023-04-19T07:16:40;5.53;;;2.75;;
77226;SDS011;66234;47.642;19.144;2023-04-19T07:19:45;5.30;;;3.00;;
77226;SDS011;66234;47.642;19.144;2023-04-19T07:22:49;4.10;;;2.87;;
77226;SDS011;66234;47.642;19.144;2023-04-19T07:25:53;4.67;;;2.87;;
77226;SDS011;66234;47.642;19.144;2023-04-19T07:29:07;6.22;;;2.50;;
77226;SDS011;66234;47.642;19.144;2023-04-19T07:32:14;4.35;;;2.45;;
77226;SDS011;66234;47.642;19.144;2023-04-19T07:35:23;3.90;;;2.60;;
77226;SDS011;66234;47.642;19.144;2023-04-19T07:38:26;4.90;;;2.63;;
77226;SDS011;66234;47.642;19.144;2023-04-19T07:41:31;3.33;;;1.97;;
77226;SDS011;66234;47.642;19.144;2023-04-19T07:44:34;3.33;;;2.13;;
77226;SDS011;66234;47.642;19.144;2023-04-19T07:47:37;3.63;;;2.47;;
77226;SDS011;66234;47.642;19.144;2023-04-19T07:50:40;4.90;;;2.20;;
77226;SDS011;66234;47.642;19.144;2023-04-19T07:53:43;4.03;;;2.20;;
77226;SDS011;66234;47.642;19.144;2023-04-19T07:56:48;3.53;;;2.27;;
77226;SDS011;66234;47.642;19.144;2023-04-19T07:59:50;4.30;;;2.92;;
77226;SDS011;66234;47.642;19.144;2023-04-19T08:02:55;3.20;;;2.20;;
77226;SDS011;66234;47.642;19.144;2023-04-19T08:06:05;3.17;;;2.40;;
77226;SDS011;66234;47.642;19.144;2023-04-19T08:09:11;4.17;;;2.30;;
77226;SDS011;66234;47.642;19.144;2023-04-19T08:12:14;5.83;;;2.90;;
77226;SDS011;66234;47.642;19.144;2023-04-19T08:15:34;4.75;;;2.67;;
77226;SDS011;66234;47.642;19.144;2023-04-19T08:18:40;5.93;;;2.75;;
77226;SDS011;66234;47.642;19.144;2023-04-19T08:21:43;5.32;;;2.83;;
77226;SDS011;66234;47.642;19.144;2023-04-19T08:24:48;6.10;;;3.10;;
77226;SDS011;66234;47.642;19.144;2023-04-19T08:27:55;9.50;;;2.90;;
77226;SDS011;66234;47.642;19.144;2023-04-19T08:30:59;5.95;;;2.90;;
77226;SDS011;66234;47.642;19.144;2023-04-19T08:34:02;4.40;;;2.53;;
77226;SDS011;66234;47.642;19.144;2023-04-19T08:37:06;4.57;;;2.30;;
77226;SDS011;66234;47.642;19.144;2023-04-19T08:40:17;4.47;;;2.10;;
77226;SDS011;66234;47.642;19.144;2023-04-19T08:43:20;4.03;;;2.60;;
77226;SDS011;66234;47.642;19.144;2023-04-19T08:46:25;3.72;;;2.33;;
77226;SDS011;66234;47.642;19.144;2023-04-19T08:49:28;5.35;;;2.38;;
77226;SDS011;66234;47.642;19.144;2023-04-19T08:52:34;4.50;;;2.10;;
77226;SDS011;66234;47.642;19.144;2023-04-19T08:55:56;2.90;;;1.60;;
77226;SDS011;66234;47.642;19.144;2023-04-19T08:59:16;3.93;;;2.10;;
77226;SDS011;66234;47.642;19.144;2023-04-19T09:02:22;3.25;;;1.98;;
77226;SDS011;66234;47.642;19.144;2023-04-19T09:05:26;2.85;;;1.80;;
77226;SDS011;66234;47.642;19.144;2023-04-19T09:08:29;2.22;;;1.73;;
77226;SDS011;66234;47.642;19.144;2023-04-19T09:11:35;2.57;;;1.90;;
77226;SDS011;66234;47.642;19.144;2023-04-19T09:14:41;3.93;;;1.93;;
77226;SDS011;66234;47.642;19.144;2023-04-19T09:18:03;2.45;;;1.75;;
77226;SDS011;66234;47.642;19.144;2023-04-19T09:21:09;2.45;;;1.60;;
77226;SDS011;66234;47.642;19.144;2023-04-19T09:24:14;3.00;;;2.13;;
77226;SDS011;66234;47.642;19.144;2023-04-19T09:30:52;3.43;;;2.03;;
77226;SDS011;66234;47.642;19.144;2023-04-19T09:34:16;8.25;;;2.53;;
77226;SDS011;66234;47.642;19.144;2023-04-19T09:37:21;4.50;;;2.38;;
77226;SDS011;66234;47.642;19.144;2023-04-19T09:40:44;3.08;;;2.38;;
77226;SDS011;66234;47.642;19.144;2023-04-19T09:43:50;3.47;;;2.08;;
77226;SDS011;66234;47.642;19.144;2023-04-19T09:47:20;4.30;;;2.30;;
77226;SDS011;66234;47.642;19.144;2023-04-19T09:50:26;3.92;;;2.42;;
77226;SDS011;66234;47.642;19.144;2023-04-19T09:53:29;3.47;;;2.25;;
77226;SDS011;66234;47.642;19.144;2023-04-19T09:56:36;5.60;;;2.58;;
77226;SDS011;66234;47.642;19.144;2023-04-19T09:59:40;3.47;;;2.77;;
77226;SDS011;66234;47.642;19.144;2023-04-19T10:02:42;4.73;;;2.20;;
77226;SDS011;66234;47.642;19.144;2023-04-19T10:05:51;3.08;;;2.00;;
77226;SDS011;66234;47.642;19.144;2023-04-19T10:08:53;2.55;;;1.92;;
77226;SDS011;66234;47.642;19.144;2023-04-19T10:11:59;3.20;;;2.20;;
77226;SDS011;66234;47.642;19.144;2023-04-19T10:15:23;4.53;;;2.10;;
77226;SDS011;66234;47.642;19.144;2023-04-19T10:18:40;3.57;;;2.10;;
77226;SDS011;66234;47.642;19.144;2023-04-19T10:21:43;3.83;;;2.63;;
77226;SDS011;66234;47.642;19.144;2023-04-19T10:25:32;4.80;;;2.75;;
77226;SDS011;66234;47.642;19.144;2023-04-19T10:28:16;6.60;;;2.90;;
77226;SDS011;66234;47.642;19.144;2023-04-19T10:31:19;5.97;;;2.97;;
77226;SDS011;66234;47.642;19.144;2023-04-19T10:34:38;5.17;;;2.80;;
77226;SDS011;66234;47.642;19.144;2023-04-19T10:37:43;4.05;;;2.75;;
77226;SDS011;66234;47.642;19.144;2023-04-19T10:41:04;7.20;;;3.70;;
77226;SDS011;66234;47.642;19.144;2023-04-19T10:44:16;4.53;;;3.13;;
77226;SDS011;66234;47.642;19.144;2023-04-19T10:51:02;4.80;;;3.37;;
77226;SDS011;66234;47.642;19.144;2023-04-19T10:54:07;6.50;;;3.90;;
77226;SDS011;66234;47.642;19.144;2023-04-19T10:57:11;5.82;;;2.80;;
77226;SDS011;66234;47.642;19.144;2023-04-19T11:00:20;3.58;;;2.90;;
77226;SDS011;66234;47.642;19.144;2023-04-19T11:09:57;5.30;;;2.75;;
77226;SDS011;66234;47.642;19.144;2023-04-19T11:12:59;4.47;;;3.03;;
77226;SDS011;66234;47.642;19.144;2023-04-19T11:16:08;4.25;;;2.60;;
77226;SDS011;66234;47.642;19.144;2023-04-19T11:19:25;3.00;;;2.43;;
77226;SDS011;66234;47.642;19.144;2023-04-19T11:22:38;4.67;;;2.77;;
77226;SDS011;66234;47.642;19.144;2023-04-19T11:25:43;4.20;;;2.55;;
77226;SDS011;66234;47.642;19.144;2023-04-19T11:28:46;3.17;;;2.30;;
77226;SDS011;66234;47.642;19.144;2023-04-19T11:31:50;3.80;;;2.55;;
77226;SDS011;66234;47.642;19.144;2023-04-19T11:34:54;4.80;;;3.20;;
77226;SDS011;66234;47.642;19.144;2023-04-19T11:37:59;5.13;;;2.40;;
77226;SDS011;66234;47.642;19.144;2023-04-19T11:41:03;9.05;;;4.60;;
77226;SDS011;66234;47.642;19.144;2023-04-19T11:44:14;5.82;;;4.90;;
77226;SDS011;66234;47.642;19.144;2023-04-19T11:47:27;8.57;;;4.90;;
77226;SDS011;66234;47.642;19.144;2023-04-19T11:53:38;5.70;;;4.67;;
77226;SDS011;66234;47.642;19.144;2023-04-19T11:56:57;5.97;;;4.75;;
77226;SDS011;66234;47.642;19.144;2023-04-19T12:00:04;8.13;;;4.22;;
77226;SDS011;66234;47.642;19.144;2023-04-19T12:03:15;6.63;;;5.30;;
77226;SDS011;66234;47.642;19.144;2023-04-19T12:06:28;5.73;;;4.90;;
77226;SDS011;66234;47.642;19.144;2023-04-19T12:09:34;5.17;;;4.50;;
77226;SDS011;66234;47.642;19.144;2023-04-19T12:12:38;7.60;;;5.28;;
77226;SDS011;66234;47.642;19.144;2023-04-19T12:15:44;7.40;;;4.70;;
77226;SDS011;66234;47.642;19.144;2023-04-19T12:18:48;6.53;;;4.47;;
77226;SDS011;66234;47.642;19.144;2023-04-19T12:21:52;7.87;;;4.40;;
77226;SDS011;66234;47.642;19.144;2023-04-19T12:24:55;7.37;;;5.20;;
77226;SDS011;66234;47.642;19.144;2023-04-19T12:27:59;7.35;;;5.03;;
77226;SDS011;66234;47.642;19.144;2023-04-19T12:31:02;8.30;;;5.78;;
77226;SDS011;66234;47.642;19.144;2023-04-19T12:34:05;8.50;;;5.25;;
77226;SDS011;66234;47.642;19.144;2023-04-19T12:37:07;7.70;;;5.73;;
77226;SDS011;66234;47.642;19.144;2023-04-19T12:40:10;7.70;;;5.40;;
77226;SDS011;66234;47.642;19.144;2023-04-19T12:43:13;8.60;;;6.13;;
77226;SDS011;66234;47.642;19.144;2023-04-19T12:46:16;8.90;;;5.90;;
77226;SDS011;66234;47.642;19.144;2023-04-19T12:49:18;9.82;;;6.80;;
77226;SDS011;66234;47.642;19.144;2023-04-19T12:52:21;9.13;;;5.93;;
77226;SDS011;66234;47.642;19.144;2023-04-19T12:55:24;9.00;;;6.03;;
77226;SDS011;66234;47.642;19.144;2023-04-19T12:58:27;8.68;;;6.00;;
77226;SDS011;66234;47.642;19.144;2023-04-19T13:01:30;8.43;;;5.53;;
77226;SDS011;66234;47.642;19.144;2023-04-19T13:04:34;7.88;;;5.28;;
77226;SDS011;66234;47.642;19.144;2023-04-19T13:07:37;8.37;;;4.10;;
77226;SDS011;66234;47.642;19.144;2023-04-19T13:10:40;6.57;;;4.47;;
77226;SDS011;66234;47.642;19.144;2023-04-19T13:13:43;6.68;;;4.50;;
77226;SDS011;66234;47.642;19.144;2023-04-19T13:16:46;5.38;;;4.20;;
77226;SDS011;66234;47.642;19.144;2023-04-19T13:19:48;5.18;;;4.20;;
77226;SDS011;66234;47.642;19.144;2023-04-19T13:22:51;6.07;;;3.90;;
77226;SDS011;66234;47.642;19.144;2023-04-19T13:25:54;7.37;;;4.57;;
77226;SDS011;66234;47.642;19.144;2023-04-19T13:28:56;8.05;;;4.95;;
77226;SDS011;66234;47.642;19.144;2023-04-19T13:31:59;7.10;;;4.60;;
77226;SDS011;66234;47.642;19.144;2023-04-19T13:35:01;9.65;;;4.53;;
77226;SDS011;66234;47.642;19.144;2023-04-19T13:38:04;6.23;;;4.30;;
77226;SDS011;66234;47.642;19.144;2023-04-19T13:41:08;8.30;;;4.10;;
77226;SDS011;66234;47.642;19.144;2023-04-19T13:44:10;6.97;;;4.25;;
77226;SDS011;66234;47.642;19.144;2023-04-19T13:47:13;5.65;;;3.70;;
77226;SDS011;66234;47.642;19.144;2023-04-19T13:50:15;7.60;;;4.47;;
77226;SDS011;66234;47.642;19.144;2023-04-19T13:53:18;7.07;;;4.07;;
77226;SDS011;66234;47.642;19.144;2023-04-19T13:56:22;5.83;;;4.07;;
77226;SDS011;66234;47.642;19.144;2023-04-19T13:59:24;8.48;;;5.50;;
77226;SDS011;66234;47.642;19.144;2023-04-19T14:02:27;8.15;;;5.38;;
77226;SDS011;66234;47.642;19.144;2023-04-19T14:05:30;7.78;;;4.80;;
77226;SDS011;66234;47.642;19.144;2023-04-19T14:08:33;7.97;;;5.10;;
77226;SDS011;66234;47.642;19.144;2023-04-19T14:11:36;7.47;;;4.70;;
77226;SDS011;66234;47.642;19.144;2023-04-19T14:14:39;7.57;;;4.95;;
77226;SDS011;66234;47.642;19.144;2023-04-19T14:17:41;7.82;;;5.47;;
77226;SDS011;66234;47.642;19.144;2023-04-19T14:20:44;7.35;;;5.43;;
77226;SDS011;66234;47.642;19.144;2023-04-19T14:23:47;8.20;;;5.43;;
77226;SDS011;66234;47.642;19.144;2023-04-19T14:26:49;9.10;;;6.10;;
77226;SDS011;66234;47.642;19.144;2023-04-19T14:30:11;8.38;;;5.90;;
77226;SDS011;66234;47.642;19.144;2023-04-19T14:33:14;8.55;;;5.85;;
77226;SDS011;66234;47.642;19.144;2023-04-19T14:36:16;11.52;;;6.93;;
77226;SDS011;66234;47.642;19.144;2023-04-19T14:39:19;9.63;;;5.57;;
77226;SDS011;66234;47.642;19.144;2023-04-19T14:42:22;9.70;;;5.73;;
77226;SDS011;66234;47.642;19.144;2023-04-19T14:45:25;8.43;;;5.63;;
77226;SDS011;66234;47.642;19.144;2023-04-19T14:48:28;10.85;;;5.80;;
77226;SDS011;66234;47.642;19.144;2023-04-19T14:51:31;8.75;;;6.00;;
77226;SDS011;66234;47.642;19.144;2023-04-19T14:54:34;8.80;;;4.97;;
77226;SDS011;66234;47.642;19.144;2023-04-19T14:57:37;7.60;;;5.17;;
77226;SDS011;66234;47.642;19.144;2023-04-19T15:00:39;9.15;;;4.53;;
77226;SDS011;66234;47.642;19.144;2023-04-19T15:03:42;8.23;;;4.53;;
77226;SDS011;66234;47.642;19.144;2023-04-19T15:06:45;7.70;;;4.68;;
77226;SDS011;66234;47.642;19.144;2023-04-19T15:09:48;9.23;;;4.50;;
77226;SDS011;66234;47.642;19.144;2023-04-19T15:12:51;6.63;;;4.27;;
77226;SDS011;66234;47.642;19.144;2023-04-19T15:15:53;6.95;;;4.05;;
77226;SDS011;66234;47.642;19.144;2023-04-19T15:18:56;6.10;;;3.67;;
77226;SDS011;66234;47.642;19.144;2023-04-19T15:21:59;7.75;;;3.63;;
77226;SDS011;66234;47.642;19.144;2023-04-19T15:25:01;5.90;;;4.07;;
77226;SDS011;66234;47.642;19.144;2023-04-19T15:28:04;8.43;;;4.93;;
77226;SDS011;66234;47.642;19.144;2023-04-19T15:31:07;6.72;;;4.07;;
77226;SDS011;66234;47.642;19.144;2023-04-19T15:34:11;6.75;;;4.80;;
77226;SDS011;66234;47.642;19.144;2023-04-19T15:37:14;8.27;;;4.55;;
77226;SDS011;66234;47.642;19.144;2023-04-19T15:40:16;6.57;;;4.43;;
77226;SDS011;66234;47.642;19.144;2023-04-19T15:43:19;5.10;;;3.67;;
77226;SDS011;66234;47.642;19.144;2023-04-19T15:46:22;8.25;;;4.15;;
77226;SDS011;66234;47.642;19.144;2023-04-19T15:49:25;5.60;;;4.00;;
77226;SDS011;66234;47.642;19.144;2023-04-19T15:52:28;7.68;;;3.90;;
77226;SDS011;66234;47.642;19.144;2023-04-19T15:55:30;7.40;;;4.43;;
77226;SDS011;66234;47.642;19.144;2023-04-19T15:58:35;8.07;;;4.10;;
77226;SDS011;66234;47.642;19.144;2023-04-19T16:01:37;6.35;;;4.32;;
77226;SDS011;66234;47.642;19.144;2023-04-19T16:04:40;5.10;;;3.70;;
77226;SDS011;66234;47.642;19.144;2023-04-19T16:07:43;6.13;;;4.38;;
77226;SDS011;66234;47.642;19.144;2023-04-19T16:10:46;4.77;;;3.37;;
77226;SDS011;66234;47.642;19.144;2023-04-19T16:13:50;4.87;;;2.80;;
77226;SDS011;66234;47.642;19.144;2023-04-19T16:16:52;4.82;;;2.90;;
77226;SDS011;66234;47.642;19.144;2023-04-19T16:19:55;5.18;;;2.75;;
77226;SDS011;66234;47.642;19.144;2023-04-19T16:22:58;4.43;;;2.53;;
77226;SDS011;66234;47.642;19.144;2023-04-19T16:26:04;4.80;;;2.70;;
77226;SDS011;66234;47.642;19.144;2023-04-19T16:29:08;5.13;;;2.67;;
77226;SDS011;66234;47.642;19.144;2023-04-19T16:32:11;4.90;;;2.75;;
77226;SDS011;66234;47.642;19.144;2023-04-19T16:35:14;5.05;;;2.65;;
77226;SDS011;66234;47.642;19.144;2023-04-19T16:38:17;4.68;;;3.25;;
77226;SDS011;66234;47.642;19.144;2023-04-19T16:41:20;5.27;;;3.37;;
77226;SDS011;66234;47.642;19.144;2023-04-19T16:44:23;7.90;;;3.17;;
77226;SDS011;66234;47.642;19.144;2023-04-19T16:47:25;4.53;;;2.80;;
77226;SDS011;66234;47.642;19.144;2023-04-19T16:50:28;5.75;;;3.55;;
77226;SDS011;66234;47.642;19.144;2023-04-19T16:53:31;4.10;;;3.20;;
77226;SDS011;66234;47.642;19.144;2023-04-19T16:56:33;6.10;;;3.57;;
77226;SDS011;66234;47.642;19.144;2023-04-19T16:59:36;8.17;;;3.30;;
77226;SDS011;66234;47.642;19.144;2023-04-19T17:02:38;6.20;;;3.22;;
77226;SDS011;66234;47.642;19.144;2023-04-19T17:05:41;6.60;;;3.80;;
77226;SDS011;66234;47.642;19.144;2023-04-19T17:08:44;6.10;;;3.45;;
77226;SDS011;66234;47.642;19.144;2023-04-19T17:11:47;5.73;;;3.47;;
77226;SDS011;66234;47.642;19.144;2023-04-19T17:14:50;5.00;;;3.23;;
77226;SDS011;66234;47.642;19.144;2023-04-19T17:17:52;5.85;;;4.18;;
77226;SDS011;66234;47.642;19.144;2023-04-19T17:20:55;6.07;;;4.22;;
77226;SDS011;66234;47.642;19.144;2023-04-19T17:23:58;5.78;;;3.72;;
77226;SDS011;66234;47.642;19.144;2023-04-19T17:27:01;7.27;;;5.10;;
77226;SDS011;66234;47.642;19.144;2023-04-19T17:30:04;7.17;;;3.30;;
77226;SDS011;66234;47.642;19.144;2023-04-19T17:33:08;6.88;;;4.00;;
77226;SDS011;66234;47.642;19.144;2023-04-19T17:36:12;6.40;;;3.65;;
77226;SDS011;66234;47.642;19.144;2023-04-19T17:39:14;5.75;;;3.55;;
77226;SDS011;66234;47.642;19.144;2023-04-19T17:42:17;4.40;;;3.33;;
77226;SDS011;66234;47.642;19.144;2023-04-19T17:45:20;5.40;;;3.30;;
77226;SDS011;66234;47.642;19.144;2023-04-19T17:48:24;6.20;;;4.15;;
77226;SDS011;66234;47.642;19.144;2023-04-19T17:51:27;7.25;;;3.92;;
77226;SDS011;66234;47.642;19.144;2023-04-19T17:54:30;6.68;;;3.42;;
77226;SDS011;66234;47.642;19.144;2023-04-19T17:57:32;5.00;;;3.50;;
77226;SDS011;66234;47.642;19.144;2023-04-19T18:00:36;10.87;;;6.03;;
77226;SDS011;66234;47.642;19.144;2023-04-19T18:03:39;13.23;;;6.72;;
77226;SDS011;66234;47.642;19.144;2023-04-19T18:06:42;14.27;;;7.90;;
77226;SDS011;66234;47.642;19.144;2023-04-19T18:09:45;17.15;;;7.53;;
77226;SDS011;66234;47.642;19.144;2023-04-19T18:12:48;15.50;;;7.50;;
77226;SDS011;66234;47.642;19.144;2023-04-19T18:15:50;13.67;;;7.00;;
77226;SDS011;66234;47.642;19.144;2023-04-19T18:18:53;8.35;;;5.63;;
77226;SDS011;66234;47.642;19.144;2023-04-19T18:21:57;9.88;;;6.22;;
77226;SDS011;66234;47.642;19.144;2023-04-19T18:25:00;11.93;;;6.65;;
77226;SDS011;66234;47.642;19.144;2023-04-19T18:28:02;11.77;;;7.23;;
77226;SDS011;66234;47.642;19.144;2023-04-19T18:31:06;11.23;;;6.83;;